sensor_id;sensor_type;location;lat;lon;timestamp;temperature;humidity
23685;DHT22;12020;51.384;6.908;2024-03-23T00:55:30;8.80;99.90
23685;DHT22;12020;51.384;6.908;2024-03-23T00:58:00;8.90;99.90
23685;DHT22;12020;51.384;6.908;2024-03-23T01:00:26;8.90;99.90
23685;DHT22;12020;51.384;6.908;2024-03-23T01:02:52;8.80;99.90
23685;DHT22;12020;51.384;6.908;2024-03-23T01:05:24;8.80;99.90
23685;DHT22;12020;51.384;6.908;2024-03-23T01:07:50;8.90;99.90
23685;DHT22;12020;51.384;6.908;2024-03-23T01:10:19;8.90;99.90
23685;DHT22;12020;51.384;6.908;2024-03-23T01:12:46;8.80;99.90
23685;DHT22;12020;51.384;6.908;2024-03-23T01:15:12;8.60;99.90
23685;DHT22;12020;51.384;6.908;2024-03-23T01:17:38;8.50;99.90
23685;DHT22;12020;51.384;6.908;2024-03-23T01:20:04;8.50;99.90
23685;DHT22;12020;51.384;6.908;2024-03-23T01:22:31;8.50;99.90
23685;DHT22;12020;51.384;6.908;2024-03-23T01:25:09;8.50;99.90
23685;DHT22;12020;51.384;6.908;2024-03-23T01:27:35;8.50;99.90
23685;DHT22;12020;51.384;6.908;2024-03-23T01:30:01;8.30;99.90
23685;DHT22;12020;51.384;6.908;2024-03-23T01:32:28;8.30;99.90
23685;DHT22;12020;51.384;6.908;2024-03-23T01:34:54;8.30;99.90
23685;DHT22;12020;51.384;6.908;2024-03-23T01:37:21;8.20;99.90
23685;DHT22;12020;51.384;6.908;2024-03-23T01:39:53;8.00;99.90
23685;DHT22;12020;51.384;6.908;2024-03-23T01:42:20;8.00;99.90
23685;DHT22;12020;51.384;6.908;2024-03-23T01:44:47;7.90;99.90
23685;DHT22;12020;51.384;6.908;2024-03-23T01:47:15;7.90;99.90
23685;DHT22;12020;51.384;6.908;2024-03-23T01:49:44;7.90;99.90
23685;DHT22;12020;51.384;6.908;2024-03-23T01:52:15;8.00;99.90
23685;DHT22;12020;51.384;6.908;2024-03-23T01:54:42;8.00;99.90
23685;DHT22;12020;51.384;6.908;2024-03-23T01:57:15;8.00;99.90
23685;DHT22;12020;51.384;6.908;2024-03-23T01:59:44;8.00;99.90
23685;DHT22;12020;51.384;6.908;2024-03-23T02:02:10;8.10;99.90
23685;DHT22;12020;51.384;6.908;2024-03-23T02:04:36;8.10;99.90
23685;DHT22;12020;51.384;6.908;2024-03-23T02:07:04;8.20;99.90
23685;DHT22;12020;51.384;6.908;2024-03-23T02:09:47;8.10;99.90
23685;DHT22;12020;51.384;6.908;2024-03-23T02:12:21;8.10;99.90
23685;DHT22;12020;51.384;6.908;2024-03-23T02:14:47;8.10;99.90
23685;DHT22;12020;51.384;6.908;2024-03-23T02:17:21;8.00;99.90
23685;DHT22;12020;51.384;6.908;2024-03-23T02:19:47;8.00;99.90
23685;DHT22;12020;51.384;6.908;2024-03-23T02:22:36;8.00;99.90
23685;DHT22;12020;51.384;6.908;2024-03-23T02:25:10;8.00;99.90
23685;DHT22;12020;51.384;6.908;2024-03-23T02:27:36;8.00;99.90
23685;DHT22;12020;51.384;6.908;2024-03-23T02:30:07;8.00;99.90
23685;DHT22;12020;51.384;6.908;2024-03-23T02:32:33;8.00;99.90
23685;DHT22;12020;51.384;6.908;2024-03-23T02:34:59;8.00;99.90
23685;DHT22;12020;51.384;6.908;2024-03-23T02:37:27;8.10;99.90
23685;DHT22;12020;51.384;6.908;2024-03-23T02:39:53;8.00;99.90
23685;DHT22;12020;51.384;6.908;2024-03-23T02:42:20;8.10;99.90
23685;DHT22;12020;51.384;6.908;2024-03-23T02:44:48;8.00;99.90
23685;DHT22;12020;51.384;6.908;2024-03-23T02:47:20;8.00;99.90
23685;DHT22;12020;51.384;6.908;2024-03-23T02:49:50;8.10;99.90
23685;DHT22;12020;51.384;6.908;2024-03-23T02:52:17;8.00;99.90
23685;DHT22;12020;51.384;6.908;2024-03-23T02:54:43;7.90;99.90
23685;DHT22;12020;51.384;6.908;2024-03-23T02:57:11;7.90;99.90
23685;DHT22;12020;51.384;6.908;2024-03-23T02:59:39;7.90;99.90
23685;DHT22;12020;51.384;6.908;2024-03-23T03:02:07;7.80;99.90
23685;DHT22;12020;51.384;6.908;2024-03-23T03:04:35;7.80;99.90
23685;DHT22;12020;51.384;6.908;2024-03-23T03:07:03;7.80;99.90
23685;DHT22;12020;51.384;6.908;2024-03-23T03:09:31;7.80;99.90
23685;DHT22;12020;51.384;6.908;2024-03-23T03:11:58;7.80;99.90
23685;DHT22;12020;51.384;6.908;2024-03-23T03:14:30;7.80;99.90
23685;DHT22;12020;51.384;6.908;2024-03-23T03:16:56;7.80;99.90
23685;DHT22;12020;51.384;6.908;2024-03-23T03:19:23;7.90;99.90
23685;DHT22;12020;51.384;6.908;2024-03-23T03:21:51;7.90;99.90
23685;DHT22;12020;51.384;6.908;2024-03-23T03:24:18;7.90;99.90
23685;DHT22;12020;51.384;6.908;2024-03-23T03:26:52;7.90;99.90
23685;DHT22;12020;51.384;6.908;2024-03-23T03:29:29;7.90;99.90
23685;DHT22;12020;51.384;6.908;2024-03-23T03:32:02;7.90;99.90
23685;DHT22;12020;51.384;6.908;2024-03-23T03:34:30;7.90;99.90
23685;DHT22;12020;51.384;6.908;2024-03-23T03:36:58;7.90;99.90
23685;DHT22;12020;51.384;6.908;2024-03-23T03:39:25;7.90;99.90
23685;DHT22;12020;51.384;6.908;2024-03-23T03:41:52;7.90;99.90
23685;DHT22;12020;51.384;6.908;2024-03-23T03:44:18;7.90;99.90
23685;DHT22;12020;51.384;6.908;2024-03-23T03:46:46;7.90;99.90
23685;DHT22;12020;51.384;6.908;2024-03-23T03:49:13;7.90;99.90
23685;DHT22;12020;51.384;6.908;2024-03-23T03:51:39;7.90;99.90
23685;DHT22;12020;51.384;6.908;2024-03-23T03:54:08;7.90;99.90
23685;DHT22;12020;51.384;6.908;2024-03-23T03:56:35;7.90;99.90
23685;DHT22;12020;51.384;6.908;2024-03-23T03:59:08;7.70;99.90
23685;DHT22;12020;51.384;6.908;2024-03-23T04:01:35;7.90;99.90
23685;DHT22;12020;51.384;6.908;2024-03-23T04:04:01;7.80;99.90
23685;DHT22;12020;51.384;6.908;2024-03-23T04:06:28;7.80;99.90
23685;DHT22;12020;51.384;6.908;2024-03-23T04:08:55;7.80;99.90
23685;DHT22;12020;51.384;6.908;2024-03-23T04:11:31;7.90;99.90
23685;DHT22;12020;51.384;6.908;2024-03-23T04:14:03;7.80;99.90
23685;DHT22;12020;51.384;6.908;2024-03-23T04:16:34;7.90;99.90
23685;DHT22;12020;51.384;6.908;2024-03-23T04:19:01;7.90;99.90
23685;DHT22;12020;51.384;6.908;2024-03-23T04:21:27;7.80;99.90
23685;DHT22;12020;51.384;6.908;2024-03-23T04:23:59;7.80;99.90
23685;DHT22;12020;51.384;6.908;2024-03-23T04:26:26;7.80;99.90
23685;DHT22;12020;51.384;6.908;2024-03-23T04:28:54;7.70;99.90
23685;DHT22;12020;51.384;6.908;2024-03-23T04:31:22;7.70;99.90
23685;DHT22;12020;51.384;6.908;2024-03-23T04:33:53;7.70;99.90
23685;DHT22;12020;51.384;6.908;2024-03-23T04:36:19;7.70;99.90
23685;DHT22;12020;51.384;6.908;2024-03-23T04:38:46;7.70;99.90
23685;DHT22;12020;51.384;6.908;2024-03-23T04:41:17;7.70;99.90
23685;DHT22;12020;51.384;6.908;2024-03-23T04:43:45;7.60;99.90
23685;DHT22;12020;51.384;6.908;2024-03-23T04:46:17;7.60;99.90
23685;DHT22;12020;51.384;6.908;2024-03-23T04:48:44;7.70;99.90
23685;DHT22;12020;51.384;6.908;2024-03-23T04:51:11;7.50;99.90
23685;DHT22;12020;51.384;6.908;2024-03-23T04:53:42;7.50;99.90
23685;DHT22;12020;51.384;6.908;2024-03-23T04:56:08;7.50;99.90
23685;DHT22;12020;51.384;6.908;2024-03-23T04:58:35;7.50;99.90
23685;DHT22;12020;51.384;6.908;2024-03-23T05:01:01;7.50;99.90
23685;DHT22;12020;51.384;6.908;2024-03-23T05:03:27;7.40;99.90
23685;DHT22;12020;51.384;6.908;2024-03-23T05:05:57;7.50;99.90
23685;DHT22;12020;51.384;6.908;2024-03-23T05:08:24;7.40;99.90
23685;DHT22;12020;51.384;6.908;2024-03-23T05:10:53;7.50;99.90
23685;DHT22;12020;51.384;6.908;2024-03-23T05:13:20;7.50;99.90
23685;DHT22;12020;51.384;6.908;2024-03-23T05:15:54;7.50;99.90
23685;DHT22;12020;51.384;6.908;2024-03-23T05:18:22;7.40;99.90
23685;DHT22;12020;51.384;6.908;2024-03-23T05:20:58;7.40;99.90
23685;DHT22;12020;51.384;6.908;2024-03-23T05:23:31;7.40;99.90
23685;DHT22;12020;51.384;6.908;2024-03-23T05:25:57;7.40;99.90
23685;DHT22;12020;51.384;6.908;2024-03-23T05:28:25;7.50;99.90
23685;DHT22;12020;51.384;6.908;2024-03-23T05:30:54;7.40;99.90
23685;DHT22;12020;51.384;6.908;2024-03-23T05:33:22;7.40;99.90
23685;DHT22;12020;51.384;6.908;2024-03-23T05:35:57;7.40;99.90
23685;DHT22;12020;51.384;6.908;2024-03-23T05:38:25;7.40;99.90
23685;DHT22;12020;51.384;6.908;2024-03-23T05:41:00;7.30;99.90
23685;DHT22;12020;51.384;6.908;2024-03-23T05:43:26;7.40;99.90
23685;DHT22;12020;51.384;6.908;2024-03-23T05:46:03;7.30;99.90
23685;DHT22;12020;51.384;6.908;2024-03-23T05:48:37;7.20;99.90
23685;DHT22;12020;51.384;6.908;2024-03-23T05:51:04;7.40;99.90
23685;DHT22;12020;51.384;6.908;2024-03-23T05:53:39;7.30;99.90
23685;DHT22;12020;51.384;6.908;2024-03-23T05:56:06;7.40;99.90
23685;DHT22;12020;51.384;6.908;2024-03-23T05:58:33;7.40;99.90
23685;DHT22;12020;51.384;6.908;2024-03-23T06:01:02;7.40;99.90
23685;DHT22;12020;51.384;6.908;2024-03-23T06:03:29;7.40;99.90
23685;DHT22;12020;51.384;6.908;2024-03-23T06:05:57;7.40;99.90
23685;DHT22;12020;51.384;6.908;2024-03-23T06:08:23;7.40;99.90
23685;DHT22;12020;51.384;6.908;2024-03-23T06:10:49;7.40;99.90
23685;DHT22;12020;51.384;6.908;2024-03-23T06:13:17;7.20;99.90
23685;DHT22;12020;51.384;6.908;2024-03-23T06:15:44;7.40;99.90
23685;DHT22;12020;51.384;6.908;2024-03-23T06:18:20;7.40;99.90
23685;DHT22;12020;51.384;6.908;2024-03-23T06:20:48;7.40;99.90
23685;DHT22;12020;51.384;6.908;2024-03-23T06:23:14;7.30;99.90
23685;DHT22;12020;51.384;6.908;2024-03-23T06:25:42;7.40;99.90
23685;DHT22;12020;51.384;6.908;2024-03-23T06:28:08;7.40;99.90
23685;DHT22;12020;51.384;6.908;2024-03-23T06:30:34;7.40;99.90
23685;DHT22;12020;51.384;6.908;2024-03-23T06:33:01;7.30;99.90
23685;DHT22;12020;51.384;6.908;2024-03-23T06:35:29;7.30;99.90
23685;DHT22;12020;51.384;6.908;2024-03-23T06:37:58;7.40;99.90
23685;DHT22;12020;51.384;6.908;2024-03-23T06:40:42;7.40;99.90
23685;DHT22;12020;51.384;6.908;2024-03-23T06:43:14;7.40;99.90
23685;DHT22;12020;51.384;6.908;2024-03-23T06:45:40;7.40;99.90
23685;DHT22;12020;51.384;6.908;2024-03-23T06:48:08;7.40;99.90
23685;DHT22;12020;51.384;6.908;2024-03-23T06:50:37;7.50;99.90
23685;DHT22;12020;51.384;6.908;2024-03-23T06:53:03;7.50;99.90
23685;DHT22;12020;51.384;6.908;2024-03-23T06:55:31;7.50;99.90
23685;DHT22;12020;51.384;6.908;2024-03-23T06:57:58;7.50;99.90
23685;DHT22;12020;51.384;6.908;2024-03-23T07:00:25;7.50;99.90
23685;DHT22;12020;51.384;6.908;2024-03-23T07:02:50;7.50;99.90
23685;DHT22;12020;51.384;6.908;2024-03-23T07:05:18;7.60;99.90
23685;DHT22;12020;51.384;6.908;2024-03-23T07:07:44;7.60;99.90
23685;DHT22;12020;51.384;6.908;2024-03-23T07:10:11;7.60;99.90
23685;DHT22;12020;51.384;6.908;2024-03-23T07:12:37;7.60;99.90
23685;DHT22;12020;51.384;6.908;2024-03-23T07:15:03;7.50;99.90
23685;DHT22;12020;51.384;6.908;2024-03-23T07:17:29;7.60;99.90
23685;DHT22;12020;51.384;6.908;2024-03-23T07:19:55;7.70;99.90
23685;DHT22;12020;51.384;6.908;2024-03-23T07:22:20;7.80;99.90
23685;DHT22;12020;51.384;6.908;2024-03-23T07:24:46;7.80;99.90
23685;DHT22;12020;51.384;6.908;2024-03-23T07:27:11;7.80;99.90
23685;DHT22;12020;51.384;6.908;2024-03-23T07:29:37;7.80;99.90
23685;DHT22;12020;51.384;6.908;2024-03-23T07:32:03;7.90;99.90
23685;DHT22;12020;51.384;6.908;2024-03-23T07:34:28;7.90;99.90
23685;DHT22;12020;51.384;6.908;2024-03-23T07:36:54;8.00;99.90
23685;DHT22;12020;51.384;6.908;2024-03-23T07:39:20;8.10;99.90
23685;DHT22;12020;51.384;6.908;2024-03-23T07:41:45;8.20;99.90
23685;DHT22;12020;51.384;6.908;2024-03-23T07:44:11;8.30;99.90
23685;DHT22;12020;51.384;6.908;2024-03-23T07:46:36;8.30;99.90
23685;DHT22;12020;51.384;6.908;2024-03-23T07:49:04;8.40;99.90
23685;DHT22;12020;51.384;6.908;2024-03-23T07:51:30;8.50;99.90
23685;DHT22;12020;51.384;6.908;2024-03-23T07:53:55;8.60;99.90
23685;DHT22;12020;51.384;6.908;2024-03-23T07:56:21;8.70;99.90
23685;DHT22;12020;51.384;6.908;2024-03-23T07:58:48;8.90;99.90
23685;DHT22;12020;51.384;6.908;2024-03-23T08:01:15;8.90;99.90
23685;DHT22;12020;51.384;6.908;2024-03-23T08:03:43;9.10;99.90
23685;DHT22;12020;51.384;6.908;2024-03-23T08:06:17;9.10;99.90
23685;DHT22;12020;51.384;6.908;2024-03-23T08:08:45;9.20;99.90
23685;DHT22;12020;51.384;6.908;2024-03-23T08:11:10;9.10;99.90
23685;DHT22;12020;51.384;6.908;2024-03-23T08:13:39;9.30;99.90
23685;DHT22;12020;51.384;6.908;2024-03-23T08:16:05;9.30;99.90
23685;DHT22;12020;51.384;6.908;2024-03-23T08:18:31;9.30;99.90
23685;DHT22;12020;51.384;6.908;2024-03-23T08:21:04;9.30;99.90
23685;DHT22;12020;51.384;6.908;2024-03-23T08:23:32;9.50;99.90
23685;DHT22;12020;51.384;6.908;2024-03-23T08:26:07;9.70;99.90
23685;DHT22;12020;51.384;6.908;2024-03-23T08:28:34;9.70;99.90
23685;DHT22;12020;51.384;6.908;2024-03-23T08:31:10;9.90;99.90
23685;DHT22;12020;51.384;6.908;2024-03-23T08:33:36;10.00;99.90
23685;DHT22;12020;51.384;6.908;2024-03-23T08:36:05;10.00;99.90
23685;DHT22;12020;51.384;6.908;2024-03-23T08:38:31;10.10;99.90
23685;DHT22;12020;51.384;6.908;2024-03-23T08:41:02;10.20;99.90
23685;DHT22;12020;51.384;6.908;2024-03-23T08:43:28;10.20;99.90
23685;DHT22;12020;51.384;6.908;2024-03-23T08:46:06;10.20;99.90
23685;DHT22;12020;51.384;6.908;2024-03-23T08:48:33;9.90;99.90
23685;DHT22;12020;51.384;6.908;2024-03-23T08:51:09;9.50;99.90
23685;DHT22;12020;51.384;6.908;2024-03-23T08:53:36;9.30;99.90
23685;DHT22;12020;51.384;6.908;2024-03-23T08:56:02;9.00;99.90
23685;DHT22;12020;51.384;6.908;2024-03-23T08:58:29;8.80;99.90
23685;DHT22;12020;51.384;6.908;2024-03-23T09:00:56;8.80;99.90
23685;DHT22;12020;51.384;6.908;2024-03-23T09:03:25;8.60;99.90
23685;DHT22;12020;51.384;6.908;2024-03-23T09:05:52;8.60;99.90
23685;DHT22;12020;51.384;6.908;2024-03-23T09:08:18;8.50;99.90
23685;DHT22;12020;51.384;6.908;2024-03-23T09:10:44;8.50;99.90
23685;DHT22;12020;51.384;6.908;2024-03-23T09:13:09;8.50;99.90
23685;DHT22;12020;51.384;6.908;2024-03-23T09:15:37;8.50;99.90
23685;DHT22;12020;51.384;6.908;2024-03-23T09:18:03;8.50;99.90
23685;DHT22;12020;51.384;6.908;2024-03-23T09:20:32;8.50;99.90
23685;DHT22;12020;51.384;6.908;2024-03-23T09:22:58;8.70;99.90
23685;DHT22;12020;51.384;6.908;2024-03-23T09:25:24;8.80;99.90
23685;DHT22;12020;51.384;6.908;2024-03-23T09:27:50;9.00;99.90
23685;DHT22;12020;51.384;6.908;2024-03-23T09:30:16;9.30;99.90
23685;DHT22;12020;51.384;6.908;2024-03-23T09:32:43;9.50;99.90
23685;DHT22;12020;51.384;6.908;2024-03-23T09:35:10;9.60;99.90
23685;DHT22;12020;51.384;6.908;2024-03-23T09:37:36;9.80;99.90
23685;DHT22;12020;51.384;6.908;2024-03-23T09:40:02;10.10;99.90
23685;DHT22;12020;51.384;6.908;2024-03-23T09:42:28;10.40;99.90
23685;DHT22;12020;51.384;6.908;2024-03-23T09:44:54;10.60;99.90
23685;DHT22;12020;51.384;6.908;2024-03-23T09:47:24;10.90;99.90
23685;DHT22;12020;51.384;6.908;2024-03-23T09:49:50;10.90;99.90
23685;DHT22;12020;51.384;6.908;2024-03-23T09:52:16;10.80;99.90
23685;DHT22;12020;51.384;6.908;2024-03-23T09:54:42;10.80;99.90
23685;DHT22;12020;51.384;6.908;2024-03-23T09:57:08;10.90;99.90
23685;DHT22;12020;51.384;6.908;2024-03-23T09:59:33;10.90;99.90
23685;DHT22;12020;51.384;6.908;2024-03-23T10:02:01;11.00;99.90
23685;DHT22;12020;51.384;6.908;2024-03-23T10:04:41;11.10;99.90
23685;DHT22;12020;51.384;6.908;2024-03-23T10:07:13;11.20;99.90
23685;DHT22;12020;51.384;6.908;2024-03-23T10:09:40;11.40;99.90
23685;DHT22;12020;51.384;6.908;2024-03-23T10:12:13;11.50;99.90
23685;DHT22;12020;51.384;6.908;2024-03-23T10:14:39;11.50;99.90
23685;DHT22;12020;51.384;6.908;2024-03-23T10:17:22;11.60;99.90
23685;DHT22;12020;51.384;6.908;2024-03-23T10:19:52;11.60;99.90
23685;DHT22;12020;51.384;6.908;2024-03-23T10:22:22;11.80;99.90
23685;DHT22;12020;51.384;6.908;2024-03-23T10:24:48;12.10;99.90
23685;DHT22;12020;51.384;6.908;2024-03-23T10:27:20;12.20;99.90
23685;DHT22;12020;51.384;6.908;2024-03-23T10:29:47;12.20;99.90
23685;DHT22;12020;51.384;6.908;2024-03-23T10:32:14;12.10;99.90
23685;DHT22;12020;51.384;6.908;2024-03-23T10:34:41;11.90;99.90
23685;DHT22;12020;51.384;6.908;2024-03-23T10:37:07;11.70;99.90
23685;DHT22;12020;51.384;6.908;2024-03-23T10:39:43;11.50;99.90
23685;DHT22;12020;51.384;6.908;2024-03-23T10:42:09;11.30;99.90
23685;DHT22;12020;51.384;6.908;2024-03-23T10:44:37;11.20;99.90
23685;DHT22;12020;51.384;6.908;2024-03-23T10:47:05;11.00;99.90
23685;DHT22;12020;51.384;6.908;2024-03-23T10:49:32;10.90;99.90
23685;DHT22;12020;51.384;6.908;2024-03-23T10:51:59;10.30;99.90
23685;DHT22;12020;51.384;6.908;2024-03-23T10:54:26;9.70;99.90
23685;DHT22;12020;51.384;6.908;2024-03-23T10:57:06;9.20;99.90
23685;DHT22;12020;51.384;6.908;2024-03-23T10:59:34;8.90;99.90
23685;DHT22;12020;51.384;6.908;2024-03-23T11:02:00;8.80;99.90
23685;DHT22;12020;51.384;6.908;2024-03-23T11:04:35;8.80;99.90
23685;DHT22;12020;51.384;6.908;2024-03-23T11:07:02;8.80;99.90
23685;DHT22;12020;51.384;6.908;2024-03-23T11:09:40;8.90;99.90
23685;DHT22;12020;51.384;6.908;2024-03-23T11:12:30;9.00;99.90
23685;DHT22;12020;51.384;6.908;2024-03-23T11:15:05;9.00;99.90
23685;DHT22;12020;51.384;6.908;2024-03-23T11:17:34;9.20;99.90
23685;DHT22;12020;51.384;6.908;2024-03-23T11:20:04;9.40;99.90
23685;DHT22;12020;51.384;6.908;2024-03-23T11:22:47;9.60;99.90
23685;DHT22;12020;51.384;6.908;2024-03-23T11:25:22;9.70;99.90
23685;DHT22;12020;51.384;6.908;2024-03-23T11:28:10;9.70;99.90
23685;DHT22;12020;51.384;6.908;2024-03-23T11:30:36;9.90;99.90
23685;DHT22;12020;51.384;6.908;2024-03-23T11:33:03;10.20;99.90
23685;DHT22;12020;51.384;6.908;2024-03-23T11:35:40;10.30;99.90
23685;DHT22;12020;51.384;6.908;2024-03-23T11:38:10;10.40;99.90
23685;DHT22;12020;51.384;6.908;2024-03-23T11:40:38;10.50;99.90
23685;DHT22;12020;51.384;6.908;2024-03-23T11:43:08;10.50;99.90
23685;DHT22;12020;51.384;6.908;2024-03-23T11:45:51;10.80;99.90
23685;DHT22;12020;51.384;6.908;2024-03-23T11:48:24;10.90;99.90
23685;DHT22;12020;51.384;6.908;2024-03-23T11:50:55;11.00;99.90
23685;DHT22;12020;51.384;6.908;2024-03-23T11:53:22;11.00;99.90
23685;DHT22;12020;51.384;6.908;2024-03-23T11:55:52;11.10;99.90
23685;DHT22;12020;51.384;6.908;2024-03-23T11:58:20;11.10;99.90
23685;DHT22;12020;51.384;6.908;2024-03-23T12:00:58;11.10;99.90
23685;DHT22;12020;51.384;6.908;2024-03-23T12:03:25;10.90;99.90
23685;DHT22;12020;51.384;6.908;2024-03-23T12:05:55;10.40;99.90
23685;DHT22;12020;51.384;6.908;2024-03-23T12:11:15;9.80;99.90
23685;DHT22;12020;51.384;6.908;2024-03-23T12:13:42;9.40;99.90
23685;DHT22;12020;51.384;6.908;2024-03-23T12:16:14;9.20;99.90
23685;DHT22;12020;51.384;6.908;2024-03-23T12:18:44;9.10;99.90
23685;DHT22;12020;51.384;6.908;2024-03-23T12:21:10;9.00;99.90
23685;DHT22;12020;51.384;6.908;2024-03-23T12:23:39;9.00;99.90
23685;DHT22;12020;51.384;6.908;2024-03-23T12:26:04;9.10;99.90
23685;DHT22;12020;51.384;6.908;2024-03-23T12:28:30;9.20;99.90
23685;DHT22;12020;51.384;6.908;2024-03-23T12:30:56;9.30;99.90
23685;DHT22;12020;51.384;6.908;2024-03-23T12:33:21;9.40;99.90
23685;DHT22;12020;51.384;6.908;2024-03-23T12:35:51;9.60;99.90
23685;DHT22;12020;51.384;6.908;2024-03-23T12:38:17;9.80;99.90
23685;DHT22;12020;51.384;6.908;2024-03-23T12:40:52;10.10;99.90
23685;DHT22;12020;51.384;6.908;2024-03-23T12:43:21;10.40;99.90
23685;DHT22;12020;51.384;6.908;2024-03-23T12:45:52;10.50;99.90
23685;DHT22;12020;51.384;6.908;2024-03-23T12:48:18;10.50;99.90
23685;DHT22;12020;51.384;6.908;2024-03-23T12:50:45;10.60;99.90
23685;DHT22;12020;51.384;6.908;2024-03-23T12:53:11;10.60;99.90
23685;DHT22;12020;51.384;6.908;2024-03-23T12:55:38;10.50;99.90
23685;DHT22;12020;51.384;6.908;2024-03-23T12:58:10;10.40;99.90
23685;DHT22;12020;51.384;6.908;2024-03-23T13:00:37;10.20;99.90
23685;DHT22;12020;51.384;6.908;2024-03-23T13:03:02;9.80;99.90
23685;DHT22;12020;51.384;6.908;2024-03-23T13:05:30;9.30;99.90
23685;DHT22;12020;51.384;6.908;2024-03-23T13:07:56;8.90;99.90
23685;DHT22;12020;51.384;6.908;2024-03-23T13:10:22;8.90;99.90
23685;DHT22;12020;51.384;6.908;2024-03-23T13:12:51;8.80;99.90
23685;DHT22;12020;51.384;6.908;2024-03-23T13:15:24;8.80;99.90
23685;DHT22;12020;51.384;6.908;2024-03-23T13:17:55;9.10;99.90
23685;DHT22;12020;51.384;6.908;2024-03-23T13:20:25;9.20;99.90
23685;DHT22;12020;51.384;6.908;2024-03-23T13:22:56;9.30;99.90
23685;DHT22;12020;51.384;6.908;2024-03-23T13:25:27;9.40;99.90
23685;DHT22;12020;51.384;6.908;2024-03-23T13:27:58;9.50;99.90
23685;DHT22;12020;51.384;6.908;2024-03-23T13:30:26;9.50;99.90
23685;DHT22;12020;51.384;6.908;2024-03-23T13:32:52;9.50;99.90
23685;DHT22;12020;51.384;6.908;2024-03-23T13:35:21;9.60;99.90
23685;DHT22;12020;51.384;6.908;2024-03-23T13:37:53;9.60;99.90
23685;DHT22;12020;51.384;6.908;2024-03-23T13:40:22;9.70;99.90
23685;DHT22;12020;51.384;6.908;2024-03-23T13:42:49;9.50;99.90
23685;DHT22;12020;51.384;6.908;2024-03-23T13:45:17;9.30;99.90
23685;DHT22;12020;51.384;6.908;2024-03-23T13:47:48;9.50;99.90
23685;DHT22;12020;51.384;6.908;2024-03-23T13:50:16;9.80;99.90
23685;DHT22;12020;51.384;6.908;2024-03-23T13:52:49;9.80;99.90
23685;DHT22;12020;51.384;6.908;2024-03-23T13:55:16;9.90;99.90
23685;DHT22;12020;51.384;6.908;2024-03-23T13:57:43;9.80;99.90
23685;DHT22;12020;51.384;6.908;2024-03-23T14:00:09;9.80;99.90
23685;DHT22;12020;51.384;6.908;2024-03-23T14:02:35;9.80;99.90
23685;DHT22;12020;51.384;6.908;2024-03-23T14:05:02;9.90;99.90
23685;DHT22;12020;51.384;6.908;2024-03-23T14:07:27;9.90;99.90
23685;DHT22;12020;51.384;6.908;2024-03-23T14:09:53;9.80;99.90
23685;DHT22;12020;51.384;6.908;2024-03-23T14:12:20;9.70;99.90
23685;DHT22;12020;51.384;6.908;2024-03-23T14:14:46;9.60;99.90
23685;DHT22;12020;51.384;6.908;2024-03-23T14:17:12;9.60;99.90
23685;DHT22;12020;51.384;6.908;2024-03-23T14:19:39;9.60;99.90
23685;DHT22;12020;51.384;6.908;2024-03-23T14:22:05;9.70;99.90
23685;DHT22;12020;51.384;6.908;2024-03-23T14:24:33;9.70;99.90
23685;DHT22;12020;51.384;6.908;2024-03-23T14:26:58;9.70;99.90
23685;DHT22;12020;51.384;6.908;2024-03-23T14:29:28;9.70;99.90
23685;DHT22;12020;51.384;6.908;2024-03-23T14:31:54;9.80;99.90
23685;DHT22;12020;51.384;6.908;2024-03-23T14:34:19;9.80;99.90
23685;DHT22;12020;51.384;6.908;2024-03-23T14:36:45;9.80;99.90
23685;DHT22;12020;51.384;6.908;2024-03-23T14:39:10;9.90;99.90
23685;DHT22;12020;51.384;6.908;2024-03-23T14:41:38;9.80;99.90
23685;DHT22;12020;51.384;6.908;2024-03-23T14:44:04;9.80;99.90
23685;DHT22;12020;51.384;6.908;2024-03-23T14:46:29;9.60;99.90
23685;DHT22;12020;51.384;6.908;2024-03-23T14:48:55;9.50;99.90
23685;DHT22;12020;51.384;6.908;2024-03-23T14:51:20;9.50;99.90
23685;DHT22;12020;51.384;6.908;2024-03-23T14:53:47;9.40;99.90
23685;DHT22;12020;51.384;6.908;2024-03-23T14:56:13;9.30;99.90
23685;DHT22;12020;51.384;6.908;2024-03-23T14:58:41;9.20;99.90
23685;DHT22;12020;51.384;6.908;2024-03-23T15:01:10;9.20;99.90
23685;DHT22;12020;51.384;6.908;2024-03-23T15:03:39;9.20;99.90
23685;DHT22;12020;51.384;6.908;2024-03-23T15:06:07;9.20;99.90
23685;DHT22;12020;51.384;6.908;2024-03-23T15:08:34;9.30;99.90
23685;DHT22;12020;51.384;6.908;2024-03-23T15:11:02;9.40;99.90
23685;DHT22;12020;51.384;6.908;2024-03-23T15:13:36;9.50;99.90
23685;DHT22;12020;51.384;6.908;2024-03-23T15:16:03;9.60;99.90
23685;DHT22;12020;51.384;6.908;2024-03-23T15:18:29;9.70;99.90
23685;DHT22;12020;51.384;6.908;2024-03-23T15:20:56;9.80;99.90
23685;DHT22;12020;51.384;6.908;2024-03-23T15:23:23;9.80;99.90
23685;DHT22;12020;51.384;6.908;2024-03-23T15:25:59;9.70;99.90
23685;DHT22;12020;51.384;6.908;2024-03-23T15:28:26;9.70;99.90
23685;DHT22;12020;51.384;6.908;2024-03-23T15:31:05;9.70;99.90
23685;DHT22;12020;51.384;6.908;2024-03-23T15:33:31;9.70;99.90
23685;DHT22;12020;51.384;6.908;2024-03-23T15:36:02;9.60;99.90
23685;DHT22;12020;51.384;6.908;2024-03-23T15:38:28;9.60;99.90
23685;DHT22;12020;51.384;6.908;2024-03-23T15:40:57;9.60;99.90
23685;DHT22;12020;51.384;6.908;2024-03-23T15:43:23;9.60;99.90
23685;DHT22;12020;51.384;6.908;2024-03-23T15:45:56;9.50;99.90
23685;DHT22;12020;51.384;6.908;2024-03-23T15:48:22;9.50;99.90
23685;DHT22;12020;51.384;6.908;2024-03-23T15:50:52;9.60;99.90
23685;DHT22;12020;51.384;6.908;2024-03-23T15:53:22;9.60;99.90
23685;DHT22;12020;51.384;6.908;2024-03-23T15:55:58;9.60;99.90
23685;DHT22;12020;51.384;6.908;2024-03-23T15:58:24;9.50;99.90
23685;DHT22;12020;51.384;6.908;2024-03-23T16:01:07;9.50;99.90
23685;DHT22;12020;51.384;6.908;2024-03-23T16:03:36;9.40;99.90
23685;DHT22;12020;51.384;6.908;2024-03-23T16:06:04;9.40;99.90
23685;DHT22;12020;51.384;6.908;2024-03-23T16:08:31;9.30;99.90
23685;DHT22;12020;51.384;6.908;2024-03-23T16:11:04;9.30;99.90
23685;DHT22;12020;51.384;6.908;2024-03-23T16:13:32;9.20;99.90
23685;DHT22;12020;51.384;6.908;2024-03-23T16:15:59;9.20;99.90
23685;DHT22;12020;51.384;6.908;2024-03-23T16:18:25;9.20;99.90
23685;DHT22;12020;51.384;6.908;2024-03-23T16:21:00;9.30;99.90
23685;DHT22;12020;51.384;6.908;2024-03-23T16:23:28;9.30;99.90
23685;DHT22;12020;51.384;6.908;2024-03-23T16:25:56;9.30;99.90
23685;DHT22;12020;51.384;6.908;2024-03-23T16:28:28;9.30;99.90
23685;DHT22;12020;51.384;6.908;2024-03-23T16:31:05;9.40;99.90
23685;DHT22;12020;51.384;6.908;2024-03-23T16:33:32;9.30;99.90
23685;DHT22;12020;51.384;6.908;2024-03-23T16:36:17;9.30;99.90
23685;DHT22;12020;51.384;6.908;2024-03-23T16:38:43;9.20;99.90
23685;DHT22;12020;51.384;6.908;2024-03-23T16:41:11;9.20;99.90
23685;DHT22;12020;51.384;6.908;2024-03-23T16:43:45;9.10;99.90
23685;DHT22;12020;51.384;6.908;2024-03-23T16:46:13;9.10;99.90
23685;DHT22;12020;51.384;6.908;2024-03-23T16:48:42;9.00;99.90
23685;DHT22;12020;51.384;6.908;2024-03-23T16:51:11;9.00;99.90